createdAt,value
2022-09-12T00:02:30.328Z,2.00
2022-09-12T00:06:35.856Z,2.15
2022-09-12T00:10:40.424Z,2.03
2022-09-12T00:14:43.424Z,2.08
2022-09-12T00:18:48.772Z,2.03
2022-09-12T00:22:51.722Z,2.25
2022-09-12T00:26:54.769Z,2.20
2022-09-12T00:30:58.031Z,2.45
2022-09-12T00:35:03.372Z,2.35
2022-09-12T00:39:06.940Z,2.05
2022-09-12T00:43:15.184Z,2.15
2022-09-12T00:47:23.431Z,1.98
2022-09-12T00:51:30.582Z,1.98
2022-09-12T00:55:39.117Z,1.80
2022-09-12T00:59:46.012Z,1.90
2022-09-12T01:03:50.097Z,1.98
2022-09-12T01:07:57.656Z,2.00
2022-09-12T01:12:03.161Z,1.83
2022-09-12T01:16:07.929Z,1.80
2022-09-12T01:20:52.648Z,1.73
2022-09-12T01:25:08.586Z,2.05
2022-09-12T01:29:28.892Z,2.05
2022-09-12T01:33:57.033Z,1.98
2022-09-12T01:38:10.039Z,2.00
2022-09-12T01:42:22.180Z,1.73
2022-09-12T01:46:33.305Z,2.05
2022-09-12T01:50:44.141Z,1.95
2022-09-12T01:54:51.792Z,1.83
2022-09-12T01:59:00.384Z,2.03
2022-09-12T02:03:10.002Z,2.05
2022-09-12T02:07:17.651Z,2.00
2022-09-12T02:11:21.524Z,1.98
2022-09-12T02:15:33.836Z,2.33
2022-09-12T02:19:41.403Z,2.20
2022-09-12T02:23:49.637Z,1.98
2022-09-12T02:27:56.666Z,2.17
2022-09-12T02:32:03.324Z,1.75
2022-09-12T02:36:21.996Z,2.22
2022-09-12T02:40:26.992Z,2.00
2022-09-12T02:44:32.228Z,1.90
2022-09-12T02:48:41.549Z,2.20
2022-09-12T02:52:45.382Z,2.05
2022-09-12T02:56:49.853Z,2.00
2022-09-12T03:00:59.788Z,2.10
2022-09-12T03:05:23.958Z,2.55
2022-09-12T03:09:37.899Z,2.35
2022-09-12T03:13:54.146Z,2.53
2022-09-12T03:18:21.565Z,2.30
2022-09-12T03:22:32.756Z,2.40
2022-09-12T03:26:41.488Z,2.25
2022-09-12T03:30:48.288Z,2.40
2022-09-12T03:34:51.558Z,2.47
2022-09-12T03:38:54.739Z,2.63
2022-09-12T03:42:57.923Z,2.65
2022-09-12T03:47:02.673Z,2.70
2022-09-12T03:51:08.174Z,2.58
2022-09-12T03:55:11.231Z,2.40
2022-09-12T03:59:14.216Z,2.85
2022-09-12T04:03:19.408Z,2.63
2022-09-12T04:07:22.368Z,2.40
2022-09-12T04:11:25.369Z,2.63
2022-09-12T04:15:28.444Z,3.22
2022-09-12T04:19:32.888Z,2.80
2022-09-12T04:23:36.867Z,2.60
2022-09-12T04:27:40.131Z,2.30
2022-09-12T04:31:43.425Z,2.95
2022-09-12T04:35:47.990Z,2.78
2022-09-12T04:39:51.883Z,2.80
2022-09-12T04:43:58.231Z,2.35
2022-09-12T04:48:01.844Z,2.95
2022-09-12T04:52:06.332Z,3.08
2022-09-12T04:56:10.970Z,2.75
2022-09-12T05:00:15.331Z,2.47
2022-09-12T05:04:19.604Z,2.63
2022-09-12T05:08:24.043Z,2.80
2022-09-12T05:12:27.045Z,2.63
2022-09-12T05:16:31.304Z,2.83
2022-09-12T05:20:34.539Z,2.92
2022-09-12T05:24:39.749Z,2.95
2022-09-12T05:28:43.754Z,2.80
2022-09-12T05:32:47.008Z,2.75
2022-09-12T05:36:50.121Z,2.65
2022-09-12T05:40:54.496Z,2.88
2022-09-12T05:44:57.622Z,2.42
2022-09-12T05:49:04.803Z,2.88
2022-09-12T05:53:08.594Z,2.63
2022-09-12T05:57:13.084Z,2.47
2022-09-12T06:01:18.010Z,2.50
2022-09-12T06:05:21.178Z,2.47
2022-09-12T06:09:25.505Z,2.38
2022-09-12T06:13:29.963Z,2.53
2022-09-12T06:17:33.438Z,2.58
2022-09-12T06:21:37.841Z,2.35
2022-09-12T06:25:47.683Z,2.35
2022-09-12T06:29:52.602Z,2.50
2022-09-12T06:33:56.872Z,2.40
2022-09-12T06:37:59.857Z,2.42
2022-09-12T06:42:02.861Z,2.28
2022-09-12T06:46:13.189Z,2.28
2022-09-12T06:50:16.857Z,2.22
2022-09-12T06:54:20.123Z,2.38
2022-09-12T06:58:23.338Z,2.47
2022-09-12T07:02:27.758Z,2.40
2022-09-12T07:06:32.722Z,2.38
2022-09-12T07:10:35.862Z,2.47
2022-09-12T07:14:39.012Z,2.50
2022-09-12T07:18:43.753Z,2.50
2022-09-12T07:22:47.042Z,2.42
2022-09-12T07:26:50.015Z,2.38
2022-09-12T07:30:54.144Z,2.83
2022-09-12T07:34:58.563Z,2.40
2022-09-12T07:39:02.007Z,2.55
2022-09-12T07:43:05.036Z,2.58
2022-09-12T07:47:08.407Z,2.88
2022-09-12T07:51:13.379Z,2.63
2022-09-12T07:55:16.742Z,2.60
2022-09-12T07:59:41.476Z,2.97
2022-09-12T08:03:45.152Z,2.80
2022-09-12T08:07:49.786Z,2.40
2022-09-12T08:11:53.046Z,3.08
2022-09-12T08:16:00.013Z,2.10
2022-09-12T08:20:04.066Z,2.33
2022-09-12T08:24:08.944Z,2.63
2022-09-12T08:28:11.939Z,2.60
2022-09-12T08:32:15.163Z,2.35
2022-09-12T08:36:21.024Z,2.88
2022-09-12T08:40:25.826Z,2.42
2022-09-12T08:44:51.699Z,2.33
2022-09-12T08:48:58.583Z,2.28
2022-09-12T08:53:05.759Z,2.35
2022-09-12T08:57:13.040Z,2.17
2022-09-12T09:01:31.378Z,2.30
2022-09-12T09:05:47.367Z,2.40
2022-09-12T09:10:03.537Z,2.22
2022-09-12T09:14:39.975Z,2.00
2022-09-12T09:18:45.809Z,2.10
2022-09-12T09:22:53.518Z,2.28
2022-09-12T09:27:02.123Z,2.30
2022-09-12T09:31:07.221Z,2.03
2022-09-12T09:35:18.828Z,2.20
2022-09-12T09:39:36.235Z,2.20
2022-09-12T09:43:39.893Z,2.13
2022-09-12T09:47:46.586Z,2.63
2022-09-12T09:51:50.151Z,2.00
2022-09-12T09:55:56.683Z,2.17
2022-09-12T09:59:59.911Z,1.90
2022-09-12T10:04:04.585Z,2.03
2022-09-12T10:08:09.040Z,2.05
2022-09-12T10:12:28.177Z,1.85
2022-09-12T10:16:33.354Z,2.08
2022-09-12T10:20:41.738Z,1.90
2022-09-12T10:24:50.731Z,2.03
2022-09-12T10:28:56.944Z,1.88
2022-09-12T10:33:08.397Z,1.70
2022-09-12T10:37:24.394Z,1.85
2022-09-12T10:41:27.874Z,1.90
2022-09-12T10:45:33.111Z,2.28
2022-09-12T10:49:40.104Z,1.70
2022-09-12T10:53:47.024Z,1.90
2022-09-12T10:58:05.359Z,1.55
2022-09-12T11:02:21.477Z,1.58
2022-09-12T11:06:31.589Z,1.92
2022-09-12T11:10:45.071Z,2.28
2022-09-12T11:15:03.519Z,1.70
2022-09-12T11:19:22.043Z,1.58
2022-09-12T11:24:00.387Z,1.65
2022-09-12T11:28:36.525Z,1.88
2022-09-12T11:33:05.598Z,1.73
2022-09-12T11:37:27.858Z,1.90
2022-09-12T11:41:33.892Z,2.08
2022-09-12T11:45:43.710Z,1.77
2022-09-12T11:49:50.700Z,1.80
2022-09-12T11:54:13.523Z,2.00
2022-09-12T11:58:19.496Z,1.90
2022-09-12T12:02:28.863Z,1.85
2022-09-12T12:06:35.234Z,1.60
2022-09-12T12:10:42.363Z,1.40
2022-09-12T12:14:49.029Z,1.45
2022-09-12T12:18:58.482Z,1.67
2022-09-12T12:23:02.227Z,1.88
2022-09-12T12:27:23.743Z,1.73
2022-09-12T12:31:29.277Z,1.60
2022-09-12T12:35:41.950Z,1.70
2022-09-12T12:40:05.840Z,1.50
2022-09-12T12:44:48.884Z,1.63
2022-09-12T12:49:09.497Z,1.55
2022-09-12T12:53:22.418Z,1.75
2022-09-12T12:57:50.421Z,1.60
2022-09-12T13:01:56.804Z,1.90
2022-09-12T13:06:03.474Z,1.58
2022-09-12T13:10:09.341Z,1.70
2022-09-12T13:14:36.406Z,2.03
2022-09-12T13:18:44.620Z,1.55
2022-09-12T13:22:50.080Z,1.50
2022-09-12T13:26:54.821Z,1.98
2022-09-12T13:31:03.421Z,1.80
2022-09-12T13:35:15.366Z,1.70
2022-09-12T13:39:27.528Z,1.73
2022-09-12T13:43:40.068Z,1.75
2022-09-12T13:47:45.320Z,1.50
2022-09-12T13:51:59.549Z,1.55
2022-09-12T13:56:03.797Z,1.40
2022-09-12T14:00:18.212Z,1.45
2022-09-12T14:04:40.257Z,1.52
2022-09-12T14:08:44.909Z,1.50
2022-09-12T14:12:50.822Z,1.50
2022-09-12T14:16:55.512Z,1.33
2022-09-12T14:21:10.405Z,1.40
2022-09-12T14:25:16.614Z,1.20
2022-09-12T14:29:21.007Z,1.42
2022-09-12T14:33:25.695Z,1.33
2022-09-12T14:37:28.726Z,1.17
2022-09-12T14:41:37.373Z,1.23
2022-09-12T14:45:41.017Z,1.23
2022-09-12T14:49:45.691Z,1.30
2022-09-12T14:53:52.509Z,1.13
2022-09-12T14:58:13.357Z,1.35
2022-09-12T15:02:24.223Z,1.20
2022-09-12T15:06:31.700Z,1.30
2022-09-12T15:10:36.896Z,1.30
2022-09-12T15:14:39.927Z,1.10
2022-09-12T15:18:43.331Z,1.15
2022-09-12T15:22:48.070Z,1.20
2022-09-12T15:26:51.070Z,1.23
2022-09-12T15:30:57.059Z,1.40
2022-09-12T15:35:00.305Z,1.30
2022-09-12T15:39:05.066Z,1.50
2022-09-12T15:43:08.261Z,1.40
2022-09-12T15:47:13.940Z,1.55
2022-09-12T15:51:18.510Z,1.17
2022-09-12T15:55:24.542Z,1.33
2022-09-12T15:59:27.727Z,1.63
2022-09-12T16:03:31.383Z,1.50
2022-09-12T16:07:34.572Z,1.40
2022-09-12T16:11:39.675Z,1.48
2022-09-12T16:15:42.749Z,1.65
2022-09-12T16:19:45.859Z,1.70
2022-09-12T16:23:49.784Z,1.60
2022-09-12T16:27:54.402Z,1.58
2022-09-12T16:31:57.747Z,1.70
2022-09-12T16:36:05.131Z,1.85
2022-09-12T16:40:09.387Z,1.70
2022-09-12T16:44:14.384Z,1.73
2022-09-12T16:48:17.603Z,1.75
2022-09-12T16:52:20.761Z,2.08
2022-09-12T16:56:24.977Z,2.00
2022-09-12T17:00:29.330Z,2.15
2022-09-12T17:04:32.356Z,1.80
2022-09-12T17:08:38.236Z,2.00
2022-09-12T17:12:41.546Z,2.10
2022-09-12T17:16:51.681Z,1.85
2022-09-12T17:20:54.991Z,1.70
2022-09-12T17:24:58.284Z,1.70
2022-09-12T17:29:01.651Z,1.67
2022-09-12T17:33:06.200Z,1.40
2022-09-12T17:37:09.639Z,1.40
2022-09-12T17:41:16.048Z,1.70
2022-09-12T17:45:19.243Z,1.75
2022-09-12T17:49:24.183Z,1.73
2022-09-12T17:53:27.251Z,1.60
2022-09-12T17:57:30.897Z,1.50
2022-09-12T18:01:51.448Z,1.55
2022-09-12T18:05:57.703Z,1.75
2022-09-12T18:10:00.814Z,1.80
2022-09-12T18:14:03.889Z,1.70
2022-09-12T18:18:07.378Z,1.80
2022-09-12T18:22:12.002Z,1.70
2022-09-12T18:26:15.337Z,1.67
2022-09-12T18:30:22.156Z,1.92
2022-09-12T18:34:25.347Z,1.95
2022-09-12T18:38:29.698Z,2.10
2022-09-12T18:42:32.851Z,2.20
2022-09-12T18:46:36.747Z,1.80
2022-09-12T18:50:39.723Z,2.00
2022-09-12T18:54:44.117Z,1.90
2022-09-12T18:58:51.964Z,1.85
2022-09-12T19:02:55.210Z,1.77
2022-09-12T19:06:58.159Z,1.85
2022-09-12T19:11:03.293Z,1.90
2022-09-12T19:15:07.220Z,1.80
2022-09-12T19:19:10.472Z,1.60
2022-09-12T19:23:13.788Z,1.63
2022-09-12T19:27:18.121Z,2.03
2022-09-12T19:31:22.018Z,1.83
2022-09-12T19:35:25.641Z,2.10
2022-09-12T19:39:28.962Z,1.95
2022-09-12T19:43:33.507Z,2.05
2022-09-12T19:47:36.508Z,1.70
2022-09-12T19:51:39.810Z,1.85
2022-09-12T19:55:42.864Z,2.00
2022-09-12T19:59:48.107Z,1.95
2022-09-12T20:03:52.590Z,2.28
2022-09-12T20:07:55.596Z,1.80
2022-09-12T20:11:58.625Z,1.83
2022-09-12T20:16:08.760Z,2.03
2022-09-12T20:20:12.266Z,2.20
2022-09-12T20:24:15.848Z,2.20
2022-09-12T20:28:18.890Z,1.80
2022-09-12T20:32:23.283Z,1.88
2022-09-12T20:36:27.055Z,2.25
2022-09-12T20:40:30.217Z,2.28
2022-09-12T20:44:33.205Z,2.03
2022-09-12T20:48:37.838Z,1.90
2022-09-12T20:52:41.001Z,2.47
2022-09-12T20:56:44.477Z,2.00
2022-09-12T21:00:47.712Z,2.20
2022-09-12T21:04:52.443Z,1.85
2022-09-12T21:08:58.685Z,2.30
2022-09-12T21:13:01.796Z,1.80
2022-09-12T21:17:05.624Z,2.20
2022-09-12T21:21:11.718Z,2.28
2022-09-12T21:25:14.943Z,1.92
2022-09-12T21:29:18.093Z,1.85
2022-09-12T21:33:22.643Z,2.17
2022-09-12T21:37:27.490Z,2.20
2022-09-12T21:41:30.707Z,2.10
2022-09-12T21:45:34.150Z,2.30
2022-09-12T21:49:37.379Z,2.25
2022-09-12T21:53:42.226Z,2.15
2022-09-12T21:57:45.316Z,2.25
2022-09-12T22:01:48.413Z,2.65
2022-09-12T22:05:52.531Z,2.33
2022-09-12T22:09:57.341Z,2.28
2022-09-12T22:14:00.365Z,2.50
2022-09-12T22:18:03.314Z,2.42
2022-09-12T22:22:24.386Z,2.67
2022-09-12T22:26:29.230Z,2.47
2022-09-12T22:30:32.452Z,2.22
2022-09-12T22:34:35.668Z,2.58
2022-09-12T22:38:38.989Z,2.20
2022-09-12T22:42:43.629Z,2.30
2022-09-12T22:46:46.899Z,2.33
2022-09-12T22:50:50.290Z,2.42
2022-09-12T22:54:53.582Z,2.65
2022-09-12T22:58:58.608Z,2.35
2022-09-12T23:03:02.294Z,2.20
2022-09-12T23:07:05.569Z,2.38
2022-09-12T23:11:10.931Z,2.28
2022-09-12T23:15:15.465Z,2.35
2022-09-12T23:19:18.454Z,2.42
2022-09-12T23:23:21.418Z,2.25
2022-09-12T23:27:27.099Z,2.25
2022-09-12T23:31:33.477Z,2.00
2022-09-12T23:35:36.658Z,2.30
2022-09-12T23:39:39.815Z,2.35
2022-09-12T23:43:45.347Z,2.25
2022-09-12T23:47:49.722Z,2.00
2022-09-12T23:51:52.913Z,2.22
2022-09-12T23:55:56.028Z,2.30
2022-09-12T23:59:59.037Z,1.90
